Time;durP1;ratioP1;P1;durP2;ratioP2;P2;SDS_P1;SDS_P2;PMS_P1;PMS_P2;Temp;Humidity;BMP_temperature;BMP_pressure;BME280_temperature;BME280_humidity;BME280_pressure;Samples;Min_cycle;Max_cycle;Signal;HPM_P1;HPM_P2
2022/07/04 00:00:59;;;;;;;1.25;1.17;;;;;;;;;;5055124;28;20076;-91
2022/07/04 00:03:26;;;;;;;1.30;1.20;;;;;;;;;;5054729;28;20127;-91
2022/07/04 00:05:53;;;;;;;1.63;1.20;;;;;;;;;;5055374;28;20047;-91
2022/07/04 00:08:21;;;;;;;1.85;1.27;;;;;;;;;;5054776;28;20148;-91
2022/07/04 00:10:48;;;;;;;1.30;1.02;;;;;;;;;;5055971;28;20486;-91
2022/07/04 00:13:15;;;;;;;1.10;1.10;;;;;;;;;;5055201;28;20162;-91
2022/07/04 00:15:42;;;;;;;3.78;1.40;;;;;;;;;;5055180;28;20119;-90
2022/07/04 00:18:10;;;;;;;1.38;1.33;;;;;;;;;;5055358;28;20140;-91
2022/07/04 00:20:37;;;;;;;2.15;1.58;;;;;;;;;;5055673;28;20132;-91
2022/07/04 00:23:04;;;;;;;2.95;1.42;;;;;;;;;;5055224;28;20076;-91
2022/07/04 00:25:31;;;;;;;1.88;1.27;;;;;;;;;;5055759;28;20045;-90
2022/07/04 00:27:58;;;;;;;2.42;1.30;;;;;;;;;;5054988;28;20053;-89
2022/07/04 00:30:26;;;;;;;1.50;1.40;;;;;;;;;;5054613;28;20048;-91
2022/07/04 00:32:53;;;;;;;3.88;1.48;;;;;;;;;;5055639;28;20398;-91
2022/07/04 00:35:21;;;;;;;2.45;1.20;;;;;;;;;;5055098;28;20470;-91
2022/07/04 00:37:48;;;;;;;2.00;1.48;;;;;;;;;;5054768;28;20053;-90
2022/07/04 00:40:15;;;;;;;2.25;1.90;;;;;;;;;;5055771;28;20068;-91
2022/07/04 00:42:42;;;;;;;6.80;1.55;;;;;;;;;;5054186;28;20140;-91
2022/07/04 00:45:10;;;;;;;1.42;1.33;;;;;;;;;;5054158;28;20116;-90
2022/07/04 00:47:37;;;;;;;1.90;1.65;;;;;;;;;;5055142;28;20053;-91
2022/07/04 00:50:05;;;;;;;3.08;1.60;;;;;;;;;;5054915;28;20077;-91
2022/07/04 00:52:32;;;;;;;4.88;1.58;;;;;;;;;;5056179;28;20049;-90
2022/07/04 00:55:00;;;;;;;2.03;1.58;;;;;;;;;;5055959;28;20087;-91
2022/07/04 00:57:28;;;;;;;1.48;1.33;;;;;;;;;;5054858;28;20145;-90
2022/07/04 00:59:55;;;;;;;1.70;1.60;;;;;;;;;;5056705;28;20049;-91
2022/07/04 01:02:22;;;;;;;1.95;1.58;;;;;;;;;;5055096;28;20071;-90
2022/07/04 01:04:50;;;;;;;1.90;1.80;;;;;;;;;;5054687;28;20072;-91
2022/07/04 01:07:18;;;;;;;1.60;1.50;;;;;;;;;;5055893;28;20052;-92
2022/07/04 01:09:45;;;;;;;2.28;1.60;;;;;;;;;;5055962;28;20215;-91
2022/07/04 01:12:24;;;;;;;3.00;1.73;;;;;;;;;;5055255;28;20053;-91
2022/07/04 01:14:51;;;;;;;2.53;2.00;;;;;;;;;;5054909;28;20072;-91
2022/07/04 01:17:18;;;;;;;2.17;1.42;;;;;;;;;;5054906;28;20076;-91
2022/07/04 01:19:45;;;;;;;1.60;1.50;;;;;;;;;;5054352;28;20072;-91
2022/07/04 01:22:13;;;;;;;4.25;1.70;;;;;;;;;;5054371;28;20078;-91
2022/07/04 01:24:40;;;;;;;5.13;1.77;;;;;;;;;;5053491;28;20099;-90
2022/07/04 01:27:07;;;;;;;4.00;2.25;;;;;;;;;;5054070;28;20127;-91
2022/07/04 01:29:34;;;;;;;5.05;2.40;;;;;;;;;;5053867;28;20484;-90
2022/07/04 01:32:05;;;;;;;1.75;1.65;;;;;;;;;;5055110;28;20053;-91
2022/07/04 01:34:32;;;;;;;2.38;1.75;;;;;;;;;;5054044;28;20445;-90
2022/07/04 01:37:00;;;;;;;1.75;1.73;;;;;;;;;;5053534;28;20056;-90
2022/07/04 01:39:30;;;;;;;2.05;1.90;;;;;;;;;;5053756;28;20073;-90
2022/07/04 01:41:58;;;;;;;2.13;1.90;;;;;;;;;;5053327;28;20119;-90
2022/07/04 01:44:25;;;;;;;1.80;1.70;;;;;;;;;;5053539;28;20117;-91
2022/07/04 01:46:52;;;;;;;2.33;1.85;;;;;;;;;;5053525;28;20080;-90
2022/07/04 01:49:19;;;;;;;2.92;2.20;;;;;;;;;;5053618;28;20402;-90
2022/07/04 01:51:47;;;;;;;1.80;1.70;;;;;;;;;;5053380;28;20461;-91
2022/07/04 01:54:15;;;;;;;2.45;2.25;;;;;;;;;;5054089;28;20048;-91
2022/07/04 01:56:43;;;;;;;4.22;2.03;;;;;;;;;;5053396;28;20473;-91
2022/07/04 01:59:10;;;;;;;2.20;1.98;;;;;;;;;;5054779;28;20083;-91
2022/07/04 02:01:38;;;;;;;3.40;1.90;;;;;;;;;;5054748;28;20076;-90
2022/07/04 02:04:06;;;;;;;1.92;1.80;;;;;;;;;;5053507;28;20049;-90
2022/07/04 02:06:33;;;;;;;2.45;2.28;;;;;;;;;;5053809;28;20154;-90
2022/07/04 02:09:16;;;;;;;2.85;2.05;;;;;;;;;;5037037;28;20405;-90
2022/07/04 02:14:33;;;;;;;2.50;2.30;;;;;;;;;;5054643;28;20091;-90
2022/07/04 02:17:00;;;;;;;5.50;2.28;;;;;;;;;;5054007;28;20057;-90
2022/07/04 02:19:28;;;;;;;3.55;2.03;;;;;;;;;;5054067;28;20111;-90
2022/07/04 02:21:56;;;;;;;2.80;2.25;;;;;;;;;;5054928;28;20477;-91
2022/07/04 02:24:23;;;;;;;2.58;2.47;;;;;;;;;;5054908;28;20082;-90
2022/07/04 02:26:50;;;;;;;2.45;2.25;;;;;;;;;;5053714;28;20111;-90
2022/07/04 02:29:18;;;;;;;3.10;2.85;;;;;;;;;;5053502;28;20076;-90
2022/07/04 02:31:45;;;;;;;3.03;2.35;;;;;;;;;;5053983;28;20135;-91
2022/07/04 02:34:12;;;;;;;2.03;1.92;;;;;;;;;;5054800;28;20088;-90
2022/07/04 02:36:39;;;;;;;3.78;2.45;;;;;;;;;;5053445;28;20118;-91
2022/07/04 02:39:07;;;;;;;4.00;2.35;;;;;;;;;;5052884;28;20053;-91
2022/07/04 02:41:34;;;;;;;2.88;2.47;;;;;;;;;;5052551;28;20509;-90
2022/07/04 02:44:02;;;;;;;4.50;2.72;;;;;;;;;;5052101;28;20053;-90
2022/07/04 02:46:29;;;;;;;2.60;2.40;;;;;;;;;;5052965;28;20072;-90
2022/07/04 02:48:56;;;;;;;6.43;5.25;;;;;;;;;;5053016;28;20076;-90
2022/07/04 02:51:23;;;;;;;4.63;2.40;;;;;;;;;;5053407;28;20501;-91
2022/07/04 02:53:51;;;;;;;6.10;5.70;;;;;;;;;;5056451;28;20061;-90
2022/07/04 02:56:18;;;;;;;13.75;12.35;;;;;;;;;;5057222;28;20083;-91
2022/07/04 02:58:45;;;;;;;3.60;3.30;;;;;;;;;;5057661;28;20508;-91
2022/07/04 03:01:13;;;;;;;4.20;3.90;;;;;;;;;;5058369;28;20045;-90
2022/07/04 03:03:40;;;;;;;12.18;10.73;;;;;;;;;;5057707;28;20063;-91
2022/07/04 03:06:08;;;;;;;4.72;4.32;;;;;;;;;;5057099;28;20458;-91
2022/07/04 03:08:36;;;;;;;6.40;5.80;;;;;;;;;;5056800;28;20045;-90
2022/07/04 03:11:03;;;;;;;7.22;4.97;;;;;;;;;;5058122;28;20088;-90
2022/07/04 03:13:31;;;;;;;9.20;7.55;;;;;;;;;;5056698;28;20053;-90
2022/07/04 03:15:58;;;;;;;8.30;7.50;;;;;;;;;;5057724;28;20409;-90
2022/07/04 03:18:25;;;;;;;6.80;6.18;;;;;;;;;;5058045;28;20147;-91
2022/07/04 03:20:52;;;;;;;5.25;4.75;;;;;;;;;;5056882;28;20080;-90
2022/07/04 03:23:19;;;;;;;6.18;5.68;;;;;;;;;;5056442;28;20087;-89
2022/07/04 03:25:47;;;;;;;5.65;4.47;;;;;;;;;;5056268;28;20489;-90
2022/07/04 03:28:14;;;;;;;4.97;4.10;;;;;;;;;;5058029;28;20560;-90
2022/07/04 03:30:41;;;;;;;6.30;5.80;;;;;;;;;;5056925;28;20132;-90
2022/07/04 03:33:08;;;;;;;3.80;3.60;;;;;;;;;;5056392;28;20075;-90
2022/07/04 03:35:35;;;;;;;3.78;3.40;;;;;;;;;;5057517;28;20115;-90
2022/07/04 03:38:03;;;;;;;6.03;5.47;;;;;;;;;;5057542;28;20215;-91
2022/07/04 03:40:31;;;;;;;5.53;4.97;;;;;;;;;;5055817;28;20087;-91
2022/07/04 03:42:58;;;;;;;3.80;3.50;;;;;;;;;;5054987;28;20056;-91
2022/07/04 03:45:25;;;;;;;10.90;7.18;;;;;;;;;;5055691;28;20053;-90
2022/07/04 03:47:52;;;;;;;11.27;7.55;;;;;;;;;;5055550;28;20104;-91
2022/07/04 03:50:20;;;;;;;5.35;4.85;;;;;;;;;;5056237;28;20128;-90
2022/07/04 03:52:47;;;;;;;2.88;2.78;;;;;;;;;;5055702;28;20057;-90
2022/07/04 03:55:15;;;;;;;2.78;2.58;;;;;;;;;;5056182;28;20092;-91
2022/07/04 03:57:42;;;;;;;3.03;2.35;;;;;;;;;;5056204;28;20089;-90
2022/07/04 04:00:10;;;;;;;3.05;2.72;;;;;;;;;;5055643;28;20057;-90
2022/07/04 04:02:37;;;;;;;3.90;3.60;;;;;;;;;;5055980;28;20108;-90
2022/07/04 04:05:30;;;;;;;2.63;2.50;;;;;;;;;;5055741;28;20049;-90
2022/07/04 04:07:58;;;;;;;3.03;2.55;;;;;;;;;;5050426;28;20055;-91
2022/07/04 04:10:26;;;;;;;2.40;2.30;;;;;;;;;;5056724;28;20099;-90
2022/07/04 04:12:54;;;;;;;8.93;2.92;;;;;;;;;;5055695;28;20104;-90
2022/07/04 04:15:21;;;;;;;2.60;2.40;;;;;;;;;;5055463;28;20140;-91
2022/07/04 04:17:48;;;;;;;4.35;2.70;;;;;;;;;;5056579;28;20057;-90
2022/07/04 04:20:16;;;;;;;2.75;2.15;;;;;;;;;;5057418;28;20057;-90
2022/07/04 04:22:43;;;;;;;2.83;2.38;;;;;;;;;;5056678;28;20090;-92
2022/07/04 04:25:10;;;;;;;3.80;2.13;;;;;;;;;;5057584;28;20049;-91
2022/07/04 04:27:37;;;;;;;2.20;2.10;;;;;;;;;;5056589;28;20079;-90
2022/07/04 04:30:05;;;;;;;2.53;2.30;;;;;;;;;;5055551;28;20049;-90
2022/07/04 04:32:32;;;;;;;2.10;1.90;;;;;;;;;;5056620;28;20461;-90
2022/07/04 04:34:59;;;;;;;3.75;2.50;;;;;;;;;;5056411;28;20048;-88
2022/07/04 04:37:27;;;;;;;1.80;1.70;;;;;;;;;;5056565;28;20107;-91
2022/07/04 04:39:54;;;;;;;6.22;2.40;;;;;;;;;;5056959;28;20524;-90
2022/07/04 04:42:21;;;;;;;5.38;2.47;;;;;;;;;;5057050;28;20060;-91
2022/07/04 04:44:49;;;;;;;2.38;2.17;;;;;;;;;;5056823;28;20072;-91
2022/07/04 04:47:16;;;;;;;4.47;2.22;;;;;;;;;;5056405;28;20046;-92
2022/07/04 04:49:43;;;;;;;2.70;1.75;;;;;;;;;;5056647;28;20087;-90
2022/07/04 04:52:11;;;;;;;2.20;2.10;;;;;;;;;;5055866;28;20128;-91
2022/07/04 04:54:38;;;;;;;4.18;2.40;;;;;;;;;;5055228;28;20083;-91
2022/07/04 04:57:06;;;;;;;2.45;2.25;;;;;;;;;;5055742;28;20127;-90
2022/07/04 04:59:33;;;;;;;4.75;2.00;;;;;;;;;;5056941;28;20053;-91
2022/07/04 05:02:00;;;;;;;1.63;1.52;;;;;;;;;;5057050;28;20065;-91
2022/07/04 05:04:27;;;;;;;2.03;1.77;;;;;;;;;;5056738;28;20071;-91
2022/07/04 05:06:55;;;;;;;4.68;2.10;;;;;;;;;;5056034;28;20045;-91
2022/07/04 05:09:22;;;;;;;1.98;1.80;;;;;;;;;;5055717;28;20052;-91
2022/07/04 05:11:49;;;;;;;3.80;1.73;;;;;;;;;;5056519;28;20049;-91
2022/07/04 05:14:17;;;;;;;3.17;1.70;;;;;;;;;;5056369;28;20049;-91
2022/07/04 05:16:44;;;;;;;5.45;1.85;;;;;;;;;;5054431;28;20095;-91
2022/07/04 05:19:11;;;;;;;4.63;1.27;;;;;;;;;;5054799;28;20107;-90
2022/07/04 05:21:38;;;;;;;7.43;1.95;;;;;;;;;;5054526;28;20091;-90
2022/07/04 05:24:06;;;;;;;7.07;1.60;;;;;;;;;;5053724;28;20080;-90
2022/07/04 05:26:33;;;;;;;7.40;1.88;;;;;;;;;;5054052;28;20088;-90
2022/07/04 05:29:00;;;;;;;10.60;2.13;;;;;;;;;;5055207;28;20519;-91
2022/07/04 05:31:28;;;;;;;10.63;2.00;;;;;;;;;;5055403;28;20073;-90
2022/07/04 05:33:55;;;;;;;5.97;1.67;;;;;;;;;;5055693;28;20067;-90
2022/07/04 05:36:24;;;;;;;6.90;1.67;;;;;;;;;;5053063;28;20545;-92
2022/07/04 05:38:55;;;;;;;7.83;1.43;;;;;;;;;;5052664;28;20087;-89
2022/07/04 05:41:22;;;;;;;3.78;1.20;;;;;;;;;;5053525;28;20073;-90
2022/07/04 05:43:49;;;;;;;6.20;1.60;;;;;;;;;;5053627;28;20048;-90
2022/07/04 05:46:24;;;;;;;7.75;1.60;;;;;;;;;;5053658;28;20044;-90
2022/07/04 05:48:51;;;;;;;3.40;1.48;;;;;;;;;;5052866;28;20231;-89
2022/07/04 05:51:18;;;;;;;7.13;1.30;;;;;;;;;;5053271;28;20518;-91
2022/07/04 05:53:45;;;;;;;4.32;1.73;;;;;;;;;;5053951;28;20053;-91
2022/07/04 05:56:12;;;;;;;2.17;1.30;;;;;;;;;;5051203;28;20140;-92
2022/07/04 05:58:40;;;;;;;3.67;1.08;;;;;;;;;;5054771;28;20104;-91
2022/07/04 06:01:08;;;;;;;3.40;1.20;;;;;;;;;;5053062;28;20057;-89
2022/07/04 06:03:38;;;;;;;2.50;1.10;;;;;;;;;;5053039;28;20076;-90
2022/07/04 06:06:05;;;;;;;4.75;1.00;;;;;;;;;;5053029;28;20136;-92
2022/07/04 06:08:32;;;;;;;1.23;1.00;;;;;;;;;;5052913;28;20045;-90
2022/07/04 06:11:00;;;;;;;2.75;1.00;;;;;;;;;;5052460;28;20053;-90
2022/07/04 06:13:27;;;;;;;4.20;1.00;;;;;;;;;;5052697;28;20071;-91
2022/07/04 06:15:55;;;;;;;1.13;0.77;;;;;;;;;;5052407;28;20044;-87
2022/07/04 06:18:22;;;;;;;3.65;0.90;;;;;;;;;;5052843;28;20494;-93
2022/07/04 06:20:49;;;;;;;4.75;0.93;;;;;;;;;;5052642;28;20498;-87
2022/07/04 06:23:16;;;;;;;8.00;1.23;;;;;;;;;;5052399;28;20049;-89
2022/07/04 06:25:43;;;;;;;1.48;0.70;;;;;;;;;;5053237;28;20072;-89
2022/07/04 06:28:10;;;;;;;2.65;0.70;;;;;;;;;;5055641;28;20132;-94
2022/07/04 06:30:58;;;;;;;5.55;1.23;;;;;;;;;;5057643;28;20048;-92
2022/07/04 06:33:25;;;;;;;6.85;1.20;;;;;;;;;;5056175;28;20497;-90
2022/07/04 06:35:55;;;;;;;1.50;0.90;;;;;;;;;;5056330;28;20072;-91
2022/07/04 06:38:22;;;;;;;1.67;1.00;;;;;;;;;;5056512;28;20083;-90
2022/07/04 06:40:50;;;;;;;4.78;0.85;;;;;;;;;;5056588;28;20103;-91
2022/07/04 06:43:17;;;;;;;0.80;0.70;;;;;;;;;;5056810;28;20131;-90
2022/07/04 06:45:45;;;;;;;2.80;1.20;;;;;;;;;;5056646;28;20049;-90
2022/07/04 06:48:12;;;;;;;4.63;0.80;;;;;;;;;;5056233;28;20080;-90
2022/07/04 06:50:43;;;;;;;1.95;0.55;;;;;;;;;;5056388;28;20416;-91
2022/07/04 06:53:11;;;;;;;0.95;0.77;;;;;;;;;;5056603;28;20069;-90
2022/07/04 06:55:38;;;;;;;3.90;1.00;;;;;;;;;;5056318;28;20077;-93
2022/07/04 06:58:06;;;;;;;4.50;0.63;;;;;;;;;;5056601;28;20076;-93
2022/07/04 07:00:34;;;;;;;3.75;0.80;;;;;;;;;;5056490;28;20136;-91
2022/07/04 07:03:02;;;;;;;1.42;0.70;;;;;;;;;;5055853;28;20061;-90
2022/07/04 07:05:29;;;;;;;4.03;0.65;;;;;;;;;;5055902;28;20441;-92
2022/07/04 07:08:17;;;;;;;2.42;0.93;;;;;;;;;;5056303;28;20056;-89
2022/07/04 07:10:44;;;;;;;3.70;0.90;;;;;;;;;;5055360;28;20136;-88
2022/07/04 07:13:11;;;;;;;1.98;0.80;;;;;;;;;;5056117;28;20123;-90
2022/07/04 07:15:38;;;;;;;3.85;0.82;;;;;;;;;;5055570;28;20049;-90
2022/07/04 07:18:06;;;;;;;4.57;1.20;;;;;;;;;;5055600;28;20076;-90
2022/07/04 07:20:33;;;;;;;2.38;0.88;;;;;;;;;;5056536;28;20472;-93
2022/07/04 07:23:04;;;;;;;3.80;1.10;;;;;;;;;;5056231;28;20048;-90
2022/07/04 07:25:31;;;;;;;2.60;0.93;;;;;;;;;;5055732;28;20052;-90
2022/07/04 07:27:58;;;;;;;3.47;1.13;;;;;;;;;;5055854;28;20049;-90
2022/07/04 07:30:26;;;;;;;2.40;0.52;;;;;;;;;;5056361;28;20057;-91
2022/07/04 07:32:53;;;;;;;0.82;0.80;;;;;;;;;;5055741;28;20137;-91
2022/07/04 07:35:21;;;;;;;3.00;0.80;;;;;;;;;;5056213;28;20095;-90
2022/07/04 07:37:49;;;;;;;2.17;0.60;;;;;;;;;;5055089;28;20408;-91
2022/07/04 07:40:16;;;;;;;5.15;0.95;;;;;;;;;;5054349;28;20049;-85
2022/07/04 07:42:44;;;;;;;1.38;0.75;;;;;;;;;;5057189;28;20044;-90
2022/07/04 07:45:11;;;;;;;2.45;0.90;;;;;;;;;;5056077;28;20135;-89
2022/07/04 07:47:38;;;;;;;3.03;0.70;;;;;;;;;;5055696;28;20045;-90
2022/07/04 07:50:06;;;;;;;1.42;0.90;;;;;;;;;;5055226;28;20481;-90
2022/07/04 07:52:33;;;;;;;2.80;0.90;;;;;;;;;;5054977;28;20600;-93
2022/07/04 07:55:00;;;;;;;2.90;0.70;;;;;;;;;;5054260;28;20045;-91
2022/07/04 07:57:29;;;;;;;3.00;1.20;;;;;;;;;;5054625;28;20159;-90
2022/07/04 07:59:56;;;;;;;3.90;1.30;;;;;;;;;;5055137;28;20053;-91
2022/07/04 08:05:13;;;;;;;3.83;0.70;;;;;;;;;;5015166;28;20111;-93
2022/07/04 08:07:40;;;;;;;1.38;0.90;;;;;;;;;;5054382;28;20092;-91
2022/07/04 08:10:08;;;;;;;1.48;0.70;;;;;;;;;;5055363;28;20089;-92
2022/07/04 08:12:35;;;;;;;38.83;4.13;;;;;;;;;;5054987;28;20099;-89
2022/07/04 08:15:03;;;;;;;6.28;1.13;;;;;;;;;;5053832;28;20076;-90
2022/07/04 08:17:34;;;;;;;1.38;0.60;;;;;;;;;;5054451;28;20049;-89
2022/07/04 08:20:01;;;;;;;3.55;0.80;;;;;;;;;;5055050;28;20051;-88
2022/07/04 08:22:28;;;;;;;1.27;0.80;;;;;;;;;;5055307;28;20095;-90
2022/07/04 08:24:56;;;;;;;1.05;0.68;;;;;;;;;;5054203;28;20063;-93
2022/07/04 08:27:23;;;;;;;1.38;0.80;;;;;;;;;;5054068;28;20081;-91
2022/07/04 08:29:58;;;;;;;3.55;0.93;;;;;;;;;;5054393;28;20051;-92
2022/07/04 08:32:25;;;;;;;1.25;0.60;;;;;;;;;;5053574;28;20045;-91
2022/07/04 08:34:54;;;;;;;3.53;0.70;;;;;;;;;;5053880;28;20083;-89
2022/07/04 08:37:23;;;;;;;2.75;0.55;;;;;;;;;;5054260;28;20080;-88
2022/07/04 08:39:50;;;;;;;2.35;0.77;;;;;;;;;;5053487;28;20056;-93
2022/07/04 08:42:18;;;;;;;1.95;0.70;;;;;;;;;;5053885;28;20081;-94
2022/07/04 08:44:50;;;;;;;2.65;0.80;;;;;;;;;;5053382;28;20405;-92
2022/07/04 08:47:19;;;;;;;3.13;1.15;;;;;;;;;;5055831;28;20060;-90
2022/07/04 08:50:06;;;;;;;2.38;0.70;;;;;;;;;;5053966;28;20049;-94
2022/07/04 08:52:38;;;;;;;1.10;0.50;;;;;;;;;;5037301;28;20040;-93
2022/07/04 09:00:40;;;;;;;2.42;0.85;;;;;;;;;;5054459;28;20073;-90
2022/07/04 09:03:08;;;;;;;3.30;0.90;;;;;;;;;;5053382;28;20040;-91
2022/07/04 09:05:35;;;;;;;2.78;0.90;;;;;;;;;;5053212;28;20049;-93
2022/07/04 09:08:03;;;;;;;1.83;0.60;;;;;;;;;;5053268;28;20076;-91
2022/07/04 09:10:31;;;;;;;2.83;0.80;;;;;;;;;;5053090;28;20108;-92
2022/07/04 09:12:58;;;;;;;3.55;0.82;;;;;;;;;;5053540;28;20068;-90
2022/07/04 09:15:42;;;;;;;1.40;0.77;;;;;;;;;;5053485;28;20169;-95
2022/07/04 09:18:21;;;;;;;0.52;0.50;;;;;;;;;;5052798;28;20180;-90
2022/07/04 09:20:48;;;;;;;4.25;0.88;;;;;;;;;;5053462;28;20052;-89
2022/07/04 09:23:30;;;;;;;2.25;0.70;;;;;;;;;;5053054;28;20044;-91
2022/07/04 09:26:08;;;;;;;2.67;0.88;;;;;;;;;;5052736;28;20079;-91
2022/07/04 09:28:36;;;;;;;2.63;0.75;;;;;;;;;;5053141;28;20466;-92
2022/07/04 09:31:13;;;;;;;1.30;0.80;;;;;;;;;;5052572;28;20092;-90
2022/07/04 09:33:49;;;;;;;2.35;0.90;;;;;;;;;;5052827;28;20077;-92
2022/07/04 09:36:16;;;;;;;0.88;0.63;;;;;;;;;;5052770;28;20446;-93
2022/07/04 09:38:44;;;;;;;2.03;0.90;;;;;;;;;;5051967;28;20076;-89
2022/07/04 09:41:29;;;;;;;2.65;0.93;;;;;;;;;;5052428;28;20045;-90
2022/07/04 09:44:04;;;;;;;2.03;0.73;;;;;;;;;;5052247;28;20052;-84
2022/07/04 09:46:32;;;;;;;1.00;0.70;;;;;;;;;;5052428;28;20080;-89
2022/07/04 09:48:59;;;;;;;1.55;0.70;;;;;;;;;;5052480;28;20045;-88
2022/07/04 09:51:37;;;;;;;4.63;0.60;;;;;;;;;;5052360;28;20528;-91
2022/07/04 09:54:16;;;;;;;3.75;0.90;;;;;;;;;;5052128;28;20516;-90
2022/07/04 09:56:45;;;;;;;4.53;0.88;;;;;;;;;;5052274;28;20068;-90
2022/07/04 09:59:12;;;;;;;3.20;0.60;;;;;;;;;;5053024;28;20049;-91
2022/07/04 10:01:39;;;;;;;1.35;0.80;;;;;;;;;;5052419;28;20076;-91
2022/07/04 10:04:07;;;;;;;2.85;0.73;;;;;;;;;;5053458;28;20124;-95
2022/07/04 10:06:35;;;;;;;2.05;0.93;;;;;;;;;;5052768;28;20460;-94
2022/07/04 10:09:09;;;;;;;2.30;0.43;;;;;;;;;;5053082;28;20131;-91
2022/07/04 10:11:38;;;;;;;3.05;1.02;;;;;;;;;;5052295;28;20081;-90
2022/07/04 10:14:06;;;;;;;2.08;0.93;;;;;;;;;;5052081;28;20069;-91
2022/07/04 10:16:34;;;;;;;0.95;0.50;;;;;;;;;;5052527;28;20072;-96
2022/07/04 10:19:04;;;;;;;1.45;0.70;;;;;;;;;;5052267;28;20057;-89
2022/07/04 10:21:32;;;;;;;4.13;0.80;;;;;;;;;;5052233;28;20076;-88
2022/07/04 10:24:00;;;;;;;0.90;0.70;;;;;;;;;;5052187;28;20045;-88
2022/07/04 10:26:29;;;;;;;0.65;0.52;;;;;;;;;;5052047;28;20044;-90
2022/07/04 10:28:56;;;;;;;1.10;0.80;;;;;;;;;;5054088;28;20462;-93
2022/07/04 10:31:25;;;;;;;1.13;0.70;;;;;;;;;;5051951;28;20049;-90
2022/07/04 10:33:54;;;;;;;4.20;0.93;;;;;;;;;;5051772;28;20079;-90
2022/07/04 10:36:23;;;;;;;0.63;0.63;;;;;;;;;;5052062;28;20111;-90
2022/07/04 10:38:53;;;;;;;2.33;0.52;;;;;;;;;;5051949;28;20401;-91
2022/07/04 10:41:22;;;;;;;0.50;0.50;;;;;;;;;;5052707;28;20108;-91
2022/07/04 10:44:07;;;;;;;1.85;0.50;;;;;;;;;;5052122;28;20053;-90
2022/07/04 10:46:38;;;;;;;1.35;0.70;;;;;;;;;;5051538;28;20049;-91
2022/07/04 10:49:08;;;;;;;2.00;0.77;;;;;;;;;;5051918;28;20045;-90
2022/07/04 10:51:38;;;;;;;3.47;0.77;;;;;;;;;;5051826;28;20462;-89
2022/07/04 10:54:07;;;;;;;5.20;0.75;;;;;;;;;;5051249;28;20045;-89
2022/07/04 10:56:36;;;;;;;2.63;0.70;;;;;;;;;;5052849;28;20049;-90
2022/07/04 10:59:08;;;;;;;1.85;0.77;;;;;;;;;;5052136;28;20045;-90
2022/07/04 11:01:39;;;;;;;3.13;0.65;;;;;;;;;;5051638;28;20433;-86
2022/07/04 11:04:07;;;;;;;1.70;0.75;;;;;;;;;;5051516;28;20041;-93
2022/07/04 11:06:38;;;;;;;6.70;0.90;;;;;;;;;;5051240;28;20139;-92
2022/07/04 11:09:20;;;;;;;3.83;0.90;;;;;;;;;;5052677;28;20076;-92
2022/07/04 11:11:50;;;;;;;3.60;0.80;;;;;;;;;;5051393;28;20084;-89
2022/07/04 11:14:35;;;;;;;0.90;0.60;;;;;;;;;;5054488;28;20076;-91
2022/07/04 11:17:03;;;;;;;2.17;0.70;;;;;;;;;;5055598;28;20079;-91
2022/07/04 11:19:31;;;;;;;2.50;0.90;;;;;;;;;;5055267;28;20049;-88
2022/07/04 11:21:58;;;;;;;1.38;0.60;;;;;;;;;;5055485;28;20136;-90
2022/07/04 11:24:26;;;;;;;0.95;0.70;;;;;;;;;;5055081;28;20114;-89
2022/07/04 11:26:54;;;;;;;1.33;0.88;;;;;;;;;;5055026;28;20502;-90
2022/07/04 11:29:21;;;;;;;1.15;0.80;;;;;;;;;;5038437;28;20450;-90
2022/07/04 11:31:49;;;;;;;4.35;0.50;;;;;;;;;;5055750;28;20084;-89
2022/07/04 11:34:17;;;;;;;1.60;0.75;;;;;;;;;;5054794;28;20136;-87
2022/07/04 11:36:45;;;;;;;4.00;1.02;;;;;;;;;;5055096;28;20072;-87
2022/07/04 11:39:18;;;;;;;2.00;0.85;;;;;;;;;;5054701;28;20080;-90
2022/07/04 11:47:43;;;;;;;1.08;0.55;;;;;;;;;;5011980;28;20076;-89
2022/07/04 11:50:11;;;;;;;1.92;0.70;;;;;;;;;;5054781;28;20486;-92
2022/07/04 11:52:38;;;;;;;1.83;0.80;;;;;;;;;;5055178;28;20080;-92
2022/07/04 11:55:25;;;;;;;0.70;0.60;;;;;;;;;;5055078;28;20044;-93
2022/07/04 11:57:54;;;;;;;1.60;0.80;;;;;;;;;;5054852;28;20081;-91
2022/07/04 12:00:25;;;;;;;1.80;0.70;;;;;;;;;;5054678;28;20100;-89
2022/07/04 12:02:52;;;;;;;4.82;0.82;;;;;;;;;;5054476;28;20524;-94
2022/07/04 12:05:20;;;;;;;2.38;0.60;;;;;;;;;;5037869;28;20052;-89
2022/07/04 12:07:48;;;;;;;3.78;0.80;;;;;;;;;;5054413;28;20069;-90
2022/07/04 12:10:35;;;;;;;4.22;0.70;;;;;;;;;;5054411;28;20390;-93
2022/07/04 12:13:08;;;;;;;3.33;0.98;;;;;;;;;;5055026;28;20073;-89
2022/07/04 12:15:36;;;;;;;;;;;;;;;;;;5054534;28;20049;-90
2022/07/04 12:18:05;;;;;;;0.98;0.68;;;;;;;;;;5057740;28;19948;-92
2022/07/04 12:20:32;;;;;;;2.53;0.68;;;;;;;;;;5057845;28;20068;-93
2022/07/04 12:23:00;;;;;;;1.02;0.63;;;;;;;;;;5054489;28;20405;-90
2022/07/04 12:25:39;;;;;;;5.20;0.80;;;;;;;;;;5053782;28;20053;-92
2022/07/04 12:28:08;;;;;;;4.10;0.90;;;;;;;;;;5054474;28;20045;-92
2022/07/04 12:30:48;;;;;;;2.20;0.73;;;;;;;;;;5054181;28;20045;-95
2022/07/04 12:33:18;;;;;;;2.90;0.60;;;;;;;;;;5037979;28;20087;-93
2022/07/04 12:35:47;;;;;;;2.15;0.70;;;;;;;;;;5054137;28;20084;-91
2022/07/04 12:38:22;;;;;;;3.20;0.85;;;;;;;;;;5053925;28;20057;-90
2022/07/04 12:40:50;;;;;;;1.48;0.75;;;;;;;;;;5053867;28;20077;-90
2022/07/04 12:43:18;;;;;;;2.65;1.00;;;;;;;;;;5053899;28;20071;-88
2022/07/04 12:45:46;;;;;;;1.48;1.02;;;;;;;;;;5053792;28;20084;-90
2022/07/04 12:48:31;;;;;;;2.30;0.75;;;;;;;;;;5054606;28;20091;-90
2022/07/04 12:51:10;;;;;;;0.93;0.70;;;;;;;;;;5053878;28;20147;-89
2022/07/04 12:53:39;;;;;;;3.65;0.80;;;;;;;;;;5054694;28;20075;-93
2022/07/04 12:56:07;;;;;;;1.17;0.90;;;;;;;;;;5053992;28;20080;-90
2022/07/04 12:58:34;;;;;;;0.75;0.50;;;;;;;;;;5053790;28;20072;-91
2022/07/04 13:01:01;;;;;;;2.05;0.60;;;;;;;;;;5053375;28;20080;-90
2022/07/04 13:03:28;;;;;;;1.00;0.90;;;;;;;;;;5053720;28;20061;-89
2022/07/04 13:05:57;;;;;;;0.95;0.88;;;;;;;;;;5053397;28;20048;-86
2022/07/04 13:08:24;;;;;;;1.52;0.80;;;;;;;;;;5054486;28;20049;-88
2022/07/04 13:12:24;;;;;;;0.90;0.60;;;;;;;;;;5053424;28;20072;-89
2022/07/04 13:13:41;;;;;;;4.30;0.90;;;;;;;;;;5054485;28;20045;-90
2022/07/04 13:16:08;;;;;;;2.50;0.70;;;;;;;;;;5052983;28;20468;-90
2022/07/04 13:18:36;;;;;;;1.83;1.02;;;;;;;;;;5053338;28;20092;-89
2022/07/04 13:21:03;;;;;;;1.85;0.82;;;;;;;;;;5053564;28;20076;-88
2022/07/04 13:23:30;;;;;;;1.02;0.70;;;;;;;;;;5052881;28;20092;-88
2022/07/04 13:25:57;;;;;;;0.70;0.70;;;;;;;;;;5053274;28;20551;-90
2022/07/04 13:28:24;;;;;;;1.83;0.80;;;;;;;;;;5053935;28;20148;-89
2022/07/04 13:30:51;;;;;;;1.02;0.70;;;;;;;;;;5052771;28;20493;-91
2022/07/04 13:33:19;;;;;;;1.05;0.60;;;;;;;;;;5053107;28;20056;-90
2022/07/04 13:35:46;;;;;;;1.70;0.70;;;;;;;;;;5052236;28;20076;-90
2022/07/04 13:38:14;;;;;;;5.20;0.70;;;;;;;;;;5052392;28;20091;-90
2022/07/04 13:40:44;;;;;;;1.80;0.90;;;;;;;;;;5052902;28;20053;-93
2022/07/04 13:43:12;;;;;;;4.82;0.93;;;;;;;;;;5053717;28;20049;-89
2022/07/04 13:45:40;;;;;;;5.28;0.70;;;;;;;;;;5052627;28;20140;-91
2022/07/04 13:48:08;;;;;;;2.60;0.88;;;;;;;;;;5052880;28;20052;-93
2022/07/04 13:50:37;;;;;;;1.20;0.60;;;;;;;;;;5052935;28;20482;-89
2022/07/04 13:53:05;;;;;;;1.77;0.45;;;;;;;;;;5052407;28;20132;-90
2022/07/04 13:55:34;;;;;;;3.25;1.02;;;;;;;;;;5052185;28;20128;-91
2022/07/04 13:58:05;;;;;;;0.47;0.47;;;;;;;;;;5052623;28;20505;-90
2022/07/04 14:00:33;;;;;;;1.92;0.68;;;;;;;;;;5035965;28;20072;-90
2022/07/04 14:03:00;;;;;;;2.90;0.60;;;;;;;;;;5052730;28;20084;-91
2022/07/04 14:05:27;;;;;;;1.15;0.60;;;;;;;;;;5052156;28;20061;-89
2022/07/04 14:07:55;;;;;;;1.10;0.55;;;;;;;;;;5052410;28;20068;-92
2022/07/04 14:10:22;;;;;;;2.47;0.40;;;;;;;;;;5052260;28;20489;-91
2022/07/04 14:12:49;;;;;;;1.15;0.77;;;;;;;;;;5052305;28;20072;-93
2022/07/04 14:15:16;;;;;;;4.53;0.60;;;;;;;;;;5052349;28;20550;-90
2022/07/04 14:17:43;;;;;;;3.08;1.00;;;;;;;;;;5052370;28;20438;-90
2022/07/04 14:20:11;;;;;;;1.65;0.47;;;;;;;;;;5054201;28;20076;-90
2022/07/04 14:22:39;;;;;;;2.65;0.60;;;;;;;;;;5052313;28;20072;-90
2022/07/04 14:25:07;;;;;;;1.95;0.68;;;;;;;;;;5052382;28;20064;-95
2022/07/04 14:27:34;;;;;;;2.53;0.50;;;;;;;;;;5052749;28;20057;-91
2022/07/04 14:30:01;;;;;;;0.70;0.50;;;;;;;;;;5052370;28;20076;-91
2022/07/04 14:32:28;;;;;;;1.65;0.70;;;;;;;;;;5052680;28;20144;-93
2022/07/04 14:34:56;;;;;;;2.05;0.80;;;;;;;;;;5052381;28;20132;-89
2022/07/04 14:37:23;;;;;;;2.65;0.70;;;;;;;;;;5053085;28;20091;-90
2022/07/04 14:39:50;;;;;;;1.67;0.63;;;;;;;;;;5052247;28;20136;-92
2022/07/04 14:42:17;;;;;;;0.80;0.52;;;;;;;;;;5052216;28;20072;-89
2022/07/04 14:44:44;;;;;;;1.42;0.60;;;;;;;;;;5052177;28;20053;-91
2022/07/04 14:47:11;;;;;;;1.35;0.60;;;;;;;;;;5052013;28;20052;-92
2022/07/04 14:49:39;;;;;;;2.15;0.60;;;;;;;;;;5055809;28;20060;-92
2022/07/04 14:52:06;;;;;;;0.65;0.52;;;;;;;;;;5056154;28;20044;-94
2022/07/04 14:54:34;;;;;;;3.38;0.70;;;;;;;;;;5056215;28;20159;-91
2022/07/04 14:57:01;;;;;;;1.52;0.70;;;;;;;;;;5055872;28;20072;-90
2022/07/04 14:59:28;;;;;;;1.02;0.80;;;;;;;;;;5055630;28;20467;-90
2022/07/04 15:01:55;;;;;;;0.95;0.77;;;;;;;;;;5055628;28;20048;-92
2022/07/04 15:04:22;;;;;;;0.73;0.68;;;;;;;;;;5056010;28;20104;-92
2022/07/04 15:06:50;;;;;;;1.98;0.75;;;;;;;;;;5055799;28;20482;-91
2022/07/04 15:09:17;;;;;;;2.67;0.50;;;;;;;;;;5055659;28;20057;-90